createdAt,value
2022-10-13T00:01:22.454Z,100.00
2022-10-13T00:03:50.389Z,100.00
2022-10-13T00:06:24.660Z,100.00
2022-10-13T00:08:52.335Z,100.00
2022-10-13T00:11:22.152Z,100.00
2022-10-13T00:13:50.899Z,99.92
2022-10-13T00:16:20.697Z,99.56
2022-10-13T00:18:48.471Z,99.49
2022-10-13T00:21:18.685Z,99.35
2022-10-13T00:23:46.248Z,99.06
2022-10-13T00:26:20.451Z,98.54
2022-10-13T00:28:52.195Z,98.55
2022-10-13T00:31:24.155Z,98.85
2022-10-13T00:33:53.087Z,98.61
2022-10-13T00:36:22.951Z,98.95
2022-10-13T00:38:50.790Z,98.75
2022-10-13T00:41:17.961Z,98.66
2022-10-13T00:43:53.148Z,98.44
2022-10-13T00:46:22.317Z,98.52
2022-10-13T00:48:57.332Z,98.50
2022-10-13T00:51:27.977Z,98.51
2022-10-13T00:53:57.444Z,99.82
2022-10-13T00:56:26.391Z,100.00
2022-10-13T00:58:55.141Z,100.00
2022-10-13T01:01:22.662Z,100.00
2022-10-13T01:03:49.843Z,100.00
2022-10-13T01:06:21.164Z,99.33
2022-10-13T01:08:50.424Z,100.00
2022-10-13T01:11:59.473Z,100.00
2022-10-13T01:14:42.729Z,100.00
2022-10-13T01:17:26.961Z,100.00
2022-10-13T01:20:20.465Z,100.00
2022-10-13T01:23:16.060Z,100.00
2022-10-13T01:26:01.878Z,99.86
2022-10-13T01:28:50.123Z,99.24
2022-10-13T01:31:23.943Z,99.34
2022-10-13T01:33:57.051Z,99.23
2022-10-13T01:36:47.328Z,99.65
2022-10-13T01:39:25.495Z,99.84
2022-10-13T01:42:01.744Z,99.99
2022-10-13T01:44:37.505Z,99.45
2022-10-13T01:47:06.272Z,99.39
2022-10-13T01:49:35.509Z,99.47
2022-10-13T01:52:07.540Z,98.86
2022-10-13T01:54:35.032Z,99.07
2022-10-13T01:57:02.778Z,98.96
2022-10-13T01:59:35.279Z,98.98
2022-10-13T02:02:26.303Z,98.77
2022-10-13T02:05:17.996Z,98.84
2022-10-13T02:07:53.410Z,98.10
2022-10-13T02:10:39.422Z,98.43
2022-10-13T02:13:09.456Z,97.93
2022-10-13T02:15:50.747Z,98.58
2022-10-13T02:18:22.687Z,98.75
2022-10-13T02:20:51.212Z,98.73
2022-10-13T02:23:19.361Z,99.00
2022-10-13T02:25:47.765Z,98.30
2022-10-13T02:28:15.984Z,98.22
2022-10-13T02:30:45.423Z,97.44
2022-10-13T02:33:14.368Z,97.50
2022-10-13T02:35:42.551Z,97.62
2022-10-13T02:38:10.783Z,97.91
2022-10-13T02:40:38.424Z,97.87
2022-10-13T02:43:05.462Z,98.01
2022-10-13T02:45:32.600Z,98.18
2022-10-13T02:47:59.686Z,98.18
2022-10-13T02:50:26.896Z,98.04
2022-10-13T02:52:56.952Z,98.23
2022-10-13T02:55:24.173Z,100.00
2022-10-13T02:57:56.798Z,100.00
2022-10-13T03:00:24.545Z,100.00
2022-10-13T03:02:51.672Z,100.00
2022-10-13T03:05:18.800Z,100.00
2022-10-13T03:07:46.141Z,100.00
2022-10-13T03:10:13.536Z,100.00
2022-10-13T03:12:40.988Z,100.00
2022-10-13T03:15:08.884Z,100.00
2022-10-13T03:17:36.409Z,100.00
2022-10-13T03:20:05.085Z,100.00
2022-10-13T03:22:33.259Z,100.00
2022-10-13T03:25:00.701Z,100.00
2022-10-13T03:27:28.258Z,100.00
2022-10-13T03:29:55.373Z,100.00
2022-10-13T03:32:23.001Z,100.00
2022-10-13T03:34:51.564Z,100.00
2022-10-13T03:37:18.615Z,100.00
2022-10-13T03:39:46.167Z,100.00
2022-10-13T03:42:13.977Z,100.00
2022-10-13T03:44:41.440Z,100.00
2022-10-13T03:47:08.533Z,100.00
2022-10-13T03:49:37.489Z,100.00
2022-10-13T03:52:05.714Z,100.00
2022-10-13T03:54:32.800Z,100.00
2022-10-13T03:56:59.931Z,100.00
2022-10-13T03:59:34.221Z,100.00
2022-10-13T04:02:03.948Z,100.00
2022-10-13T04:04:31.104Z,100.00
2022-10-13T04:06:58.277Z,100.00
2022-10-13T04:09:25.583Z,100.00
2022-10-13T04:11:53.178Z,100.00
2022-10-13T04:14:20.453Z,100.00
2022-10-13T04:16:47.955Z,100.00
2022-10-13T04:19:16.537Z,100.00
2022-10-13T04:21:44.431Z,100.00
2022-10-13T04:24:13.421Z,100.00
2022-10-13T04:26:41.222Z,100.00
2022-10-13T04:29:10.512Z,100.00
2022-10-13T04:31:39.079Z,100.00
2022-10-13T04:34:07.792Z,100.00
2022-10-13T04:36:35.080Z,100.00
2022-10-13T04:39:02.859Z,100.00
2022-10-13T04:41:30.222Z,100.00
2022-10-13T04:43:57.415Z,100.00
2022-10-13T04:46:26.938Z,100.00
2022-10-13T04:48:57.427Z,100.00
2022-10-13T04:51:31.491Z,100.00
2022-10-13T04:54:01.288Z,100.00
2022-10-13T04:56:29.539Z,100.00
2022-10-13T04:59:01.718Z,99.26
2022-10-13T05:01:28.841Z,98.54
2022-10-13T05:03:59.221Z,98.89
2022-10-13T05:06:28.921Z,98.71
2022-10-13T05:08:57.273Z,99.12
2022-10-13T05:11:26.719Z,99.12
2022-10-13T05:13:54.820Z,99.21
2022-10-13T05:16:23.210Z,99.06
2022-10-13T05:18:52.123Z,98.99
2022-10-13T05:21:22.352Z,99.11
2022-10-13T05:23:49.599Z,99.38
2022-10-13T05:26:18.170Z,99.50
2022-10-13T05:28:45.803Z,100.00
2022-10-13T05:31:21.425Z,100.00
2022-10-13T05:33:50.562Z,100.00
2022-10-13T05:36:26.381Z,100.00
2022-10-13T05:38:56.073Z,100.00
2022-10-13T05:41:24.553Z,100.00
2022-10-13T05:43:57.385Z,100.00
2022-10-13T05:46:25.413Z,100.00
2022-10-13T05:48:52.488Z,100.00
2022-10-13T05:51:43.872Z,100.00
2022-10-13T05:54:30.175Z,100.00
2022-10-13T05:57:05.449Z,100.00
2022-10-13T05:59:40.199Z,100.00
2022-10-13T06:02:10.219Z,100.00
2022-10-13T06:04:45.967Z,100.00
2022-10-13T06:07:13.370Z,100.00
2022-10-13T06:09:42.210Z,100.00
2022-10-13T06:12:10.352Z,100.00
2022-10-13T06:14:37.763Z,100.00
2022-10-13T06:17:07.493Z,100.00
2022-10-13T06:19:34.767Z,100.00
2022-10-13T06:22:07.727Z,100.00
2022-10-13T06:24:35.070Z,100.00
2022-10-13T06:27:04.848Z,100.00
2022-10-13T06:29:33.600Z,100.00
2022-10-13T06:32:00.813Z,100.00
2022-10-13T06:34:28.177Z,100.00
2022-10-13T06:36:55.752Z,100.00
2022-10-13T06:39:22.791Z,100.00
2022-10-13T06:41:50.785Z,100.00
2022-10-13T06:44:18.197Z,94.03
2022-10-13T06:46:45.353Z,88.07
2022-10-13T06:49:12.465Z,90.20
2022-10-13T06:51:39.577Z,92.66
2022-10-13T06:54:06.851Z,97.88
2022-10-13T06:56:34.218Z,100.00
2022-10-13T06:59:08.634Z,100.00
2022-10-13T07:01:41.590Z,100.00
2022-10-13T07:04:13.224Z,100.00
2022-10-13T07:06:40.616Z,100.00
2022-10-13T07:09:08.877Z,100.00
2022-10-13T07:11:36.741Z,100.00
2022-10-13T07:14:03.986Z,100.00
2022-10-13T07:16:32.052Z,100.00
2022-10-13T07:19:00.537Z,100.00
2022-10-13T07:21:27.648Z,100.00
2022-10-13T07:23:54.898Z,100.00
2022-10-13T07:26:22.650Z,100.00
2022-10-13T07:28:50.014Z,100.00
2022-10-13T07:31:19.533Z,100.00
2022-10-13T07:33:49.490Z,100.00
2022-10-13T07:36:17.820Z,100.00
2022-10-13T07:38:45.141Z,100.00
2022-10-13T07:41:13.542Z,100.00
2022-10-13T07:43:41.212Z,100.00
2022-10-13T07:46:08.696Z,100.00
2022-10-13T07:48:36.621Z,100.00
2022-10-13T07:51:14.397Z,100.00
2022-10-13T07:53:42.781Z,100.00
2022-10-13T07:56:12.235Z,99.25
2022-10-13T07:58:41.555Z,98.76
2022-10-13T08:01:10.054Z,97.24
2022-10-13T08:03:43.045Z,96.79
2022-10-13T08:06:17.024Z,94.69
2022-10-13T08:08:44.407Z,93.56
2022-10-13T08:11:16.961Z,93.09
2022-10-13T08:13:52.088Z,93.41
2022-10-13T08:16:23.372Z,94.09
2022-10-13T08:18:50.808Z,94.82
2022-10-13T08:24:08.001Z,93.38
2022-10-13T08:26:35.244Z,92.58
2022-10-13T08:29:20.767Z,91.52
2022-10-13T08:34:23.641Z,91.16
2022-10-13T08:36:54.468Z,91.24
2022-10-13T08:39:23.545Z,89.74
2022-10-13T08:41:51.322Z,88.60
2022-10-13T08:47:28.761Z,83.26
2022-10-13T08:50:00.676Z,78.68
2022-10-13T08:52:42.970Z,78.33
2022-10-13T08:55:21.496Z,78.97
2022-10-13T08:57:48.999Z,78.78
2022-10-13T09:00:17.878Z,78.68
2022-10-13T09:02:51.002Z,78.98
2022-10-13T09:05:42.196Z,77.56
2022-10-13T09:08:18.888Z,78.26
2022-10-13T09:10:48.213Z,78.25
2022-10-13T09:13:19.972Z,78.26
2022-10-13T09:15:50.609Z,78.24
2022-10-13T09:18:18.822Z,78.42
2022-10-13T09:20:46.092Z,78.16
2022-10-13T09:23:22.884Z,78.27
2022-10-13T09:25:52.188Z,77.63
2022-10-13T09:28:32.785Z,77.03
2022-10-13T09:31:14.120Z,76.44
2022-10-13T09:33:41.578Z,76.93
2022-10-13T09:36:17.729Z,77.33
2022-10-13T09:39:12.701Z,76.26
2022-10-13T09:41:43.949Z,76.41
2022-10-13T09:44:17.960Z,75.51
2022-10-13T09:46:56.274Z,75.68
2022-10-13T09:49:43.491Z,75.68
2022-10-13T09:52:13.580Z,75.20
2022-10-13T09:54:50.180Z,74.98
2022-10-13T09:57:26.359Z,74.52
2022-10-13T10:00:04.602Z,75.17
2022-10-13T10:02:54.276Z,74.82
2022-10-13T10:05:38.649Z,75.12
2022-10-13T10:08:33.674Z,74.13
2022-10-13T10:11:19.390Z,72.95
2022-10-13T10:13:46.664Z,72.61
2022-10-13T10:16:40.769Z,72.45
2022-10-13T10:19:37.238Z,72.95
2022-10-13T10:22:25.588Z,72.56
2022-10-13T10:25:09.390Z,72.04
2022-10-13T10:27:50.426Z,72.14
2022-10-13T10:30:21.798Z,72.59
2022-10-13T10:33:00.716Z,71.66
2022-10-13T10:35:48.883Z,69.42
2022-10-13T10:38:22.189Z,68.66
2022-10-13T10:41:01.305Z,68.28
2022-10-13T10:43:37.582Z,67.64
2022-10-13T10:46:13.093Z,66.56
2022-10-13T10:48:40.532Z,65.86
2022-10-13T10:51:12.148Z,65.00
2022-10-13T10:53:54.671Z,65.08
2022-10-13T10:56:39.053Z,64.08
2022-10-13T10:59:36.942Z,62.61
2022-10-13T11:02:07.213Z,62.76
2022-10-13T11:04:46.146Z,62.29
2022-10-13T11:07:22.567Z,60.00
2022-10-13T11:09:52.808Z,60.06
2022-10-13T11:12:23.076Z,59.92
2022-10-13T11:15:12.516Z,59.24
2022-10-13T11:17:41.497Z,58.48
2022-10-13T11:20:20.649Z,57.78
2022-10-13T11:23:00.143Z,58.24
2022-10-13T11:25:48.947Z,57.16
2022-10-13T11:28:42.766Z,56.95
2022-10-13T11:31:14.708Z,56.60
2022-10-13T11:33:41.936Z,56.47
2022-10-13T11:36:27.877Z,56.79
2022-10-13T11:39:18.770Z,57.46
2022-10-13T11:42:21.545Z,57.14
2022-10-13T11:45:00.418Z,57.21
2022-10-13T11:47:42.683Z,56.80
2022-10-13T11:50:48.603Z,55.54
2022-10-13T11:53:23.285Z,55.10
2022-10-13T11:55:58.633Z,54.66
2022-10-13T11:58:30.265Z,54.99
2022-10-13T12:01:13.597Z,55.43
2022-10-13T12:03:46.049Z,54.76
2022-10-13T12:06:20.965Z,53.74
2022-10-13T12:08:51.710Z,54.11
2022-10-13T12:11:27.911Z,53.52
2022-10-13T12:13:56.160Z,53.17
2022-10-13T12:16:23.367Z,53.35
2022-10-13T12:18:51.775Z,53.15
2022-10-13T12:21:22.435Z,52.64
2022-10-13T12:23:51.472Z,51.74
2022-10-13T12:26:21.822Z,51.41
2022-10-13T12:29:01.129Z,51.98
2022-10-13T12:31:40.495Z,52.51
2022-10-13T12:34:24.273Z,52.66
2022-10-13T12:37:14.817Z,52.83
2022-10-13T12:39:42.016Z,51.92
2022-10-13T12:42:13.392Z,51.88
2022-10-13T12:44:41.498Z,52.19
2022-10-13T12:47:48.543Z,51.87
2022-10-13T12:50:28.150Z,51.87
2022-10-13T12:53:03.994Z,51.70
2022-10-13T12:55:31.913Z,51.55
2022-10-13T12:57:59.633Z,50.98
2022-10-13T13:00:28.918Z,50.66
2022-10-13T13:02:59.096Z,50.67
2022-10-13T13:05:33.708Z,50.38
2022-10-13T13:08:24.589Z,50.91
2022-10-13T13:11:18.719Z,50.71
2022-10-13T13:13:48.434Z,50.81
2022-10-13T13:16:23.341Z,50.74
2022-10-13T13:18:51.565Z,49.60
2022-10-13T13:21:23.215Z,50.05
2022-10-13T13:23:53.759Z,50.31
2022-10-13T13:26:23.914Z,50.21
2022-10-13T13:28:55.175Z,50.22
2022-10-13T13:31:24.401Z,50.42
2022-10-13T13:33:52.510Z,50.65
2022-10-13T13:36:23.074Z,50.63
2022-10-13T13:38:53.338Z,49.71
2022-10-13T13:41:21.455Z,49.38
2022-10-13T13:43:50.108Z,49.48
2022-10-13T13:46:21.305Z,49.92
2022-10-13T13:48:48.698Z,49.97
2022-10-13T13:51:16.051Z,49.80
2022-10-13T13:53:44.926Z,50.21
2022-10-13T13:56:18.940Z,50.19
2022-10-13T13:58:46.857Z,49.62
2022-10-13T14:01:14.924Z,50.02
2022-10-13T14:03:42.252Z,50.46
2022-10-13T14:06:23.035Z,50.52
2022-10-13T14:08:51.171Z,50.99
2022-10-13T14:11:19.179Z,50.52
2022-10-13T14:13:46.546Z,50.96
2022-10-13T14:16:24.516Z,51.45
2022-10-13T14:18:51.836Z,51.48
2022-10-13T14:21:19.034Z,51.41
2022-10-13T14:23:47.147Z,51.59
2022-10-13T14:26:15.231Z,51.25
2022-10-13T14:28:43.711Z,51.66
2022-10-13T14:31:12.059Z,51.18
2022-10-13T14:33:40.949Z,51.61
2022-10-13T14:36:08.653Z,51.69
2022-10-13T14:38:36.105Z,51.92
2022-10-13T14:41:05.480Z,52.28
2022-10-13T14:43:33.549Z,52.43
2022-10-13T14:46:05.981Z,52.28
2022-10-13T14:48:34.953Z,52.71
2022-10-13T14:51:06.709Z,52.49
2022-10-13T14:53:36.243Z,53.47
2022-10-13T14:56:04.347Z,53.70
2022-10-13T14:58:33.602Z,53.55
2022-10-13T15:01:00.639Z,53.76
2022-10-13T15:03:27.959Z,54.21
2022-10-13T15:05:55.186Z,54.01
2022-10-13T15:08:23.841Z,54.00
2022-10-13T15:11:01.875Z,54.28
2022-10-13T15:13:29.582Z,54.85
2022-10-13T15:15:57.824Z,55.29
2022-10-13T15:18:28.405Z,55.36
2022-10-13T15:20:57.048Z,54.89
2022-10-13T15:23:24.632Z,55.33
2022-10-13T15:25:54.651Z,55.29
2022-10-13T15:28:26.571Z,55.49
2022-10-13T15:30:56.379Z,55.81
2022-10-13T15:33:23.495Z,55.90
2022-10-13T15:35:52.232Z,55.77
2022-10-13T15:38:21.317Z,56.71
2022-10-13T15:40:49.142Z,57.29
2022-10-13T15:43:17.234Z,58.00
2022-10-13T15:45:54.801Z,58.00
2022-10-13T15:48:24.539Z,57.87
2022-10-13T15:50:51.985Z,58.44
2022-10-13T15:53:20.352Z,59.04
2022-10-13T15:55:48.434Z,59.54
2022-10-13T15:58:16.038Z,60.10
2022-10-13T16:00:43.784Z,60.13
2022-10-13T16:03:16.217Z,60.92
2022-10-13T16:05:44.826Z,61.24
2022-10-13T16:08:13.380Z,61.43
2022-10-13T16:10:44.215Z,61.47
2022-10-13T16:13:14.353Z,61.67
2022-10-13T16:15:42.905Z,61.90
2022-10-13T16:18:10.082Z,62.08
2022-10-13T16:20:39.436Z,62.31
2022-10-13T16:23:06.505Z,62.57
2022-10-13T16:25:33.727Z,62.96
2022-10-13T16:28:00.986Z,62.93
2022-10-13T16:30:30.510Z,63.17
2022-10-13T16:32:58.199Z,63.48
2022-10-13T16:35:25.608Z,63.51
2022-10-13T16:37:52.881Z,63.70
2022-10-13T16:40:20.208Z,64.07
2022-10-13T16:42:47.607Z,63.89
2022-10-13T16:45:14.772Z,63.90
2022-10-13T16:47:41.857Z,64.56
2022-10-13T16:50:10.410Z,64.37
2022-10-13T16:52:38.192Z,64.48
2022-10-13T16:55:06.187Z,65.07
2022-10-13T16:57:33.636Z,65.17
2022-10-13T17:00:00.736Z,65.35
2022-10-13T17:02:31.249Z,66.26
2022-10-13T17:04:58.468Z,66.67
2022-10-13T17:07:25.749Z,66.46
2022-10-13T17:09:53.107Z,66.63
2022-10-13T17:12:20.730Z,66.47
2022-10-13T17:14:49.165Z,66.54
2022-10-13T17:17:16.567Z,66.94
2022-10-13T17:19:44.320Z,67.13
2022-10-13T17:22:11.882Z,67.14
2022-10-13T17:24:39.705Z,67.36
2022-10-13T17:27:06.813Z,67.95
2022-10-13T17:29:34.069Z,68.10
2022-10-13T17:32:01.680Z,67.89
2022-10-13T17:34:28.804Z,68.06
2022-10-13T17:36:59.367Z,68.47
2022-10-13T17:39:26.641Z,68.70
2022-10-13T17:41:53.850Z,69.10
2022-10-13T17:44:21.329Z,69.09
2022-10-13T17:46:49.980Z,68.66
2022-10-13T17:49:18.264Z,68.42
2022-10-13T17:51:46.601Z,69.01
2022-10-13T17:54:16.429Z,68.71
2022-10-13T17:56:44.438Z,68.94
2022-10-13T17:59:11.882Z,68.77
2022-10-13T18:01:39.378Z,68.97
2022-10-13T18:04:10.176Z,69.91
2022-10-13T18:06:44.116Z,69.81
2022-10-13T18:09:14.582Z,70.38
2022-10-13T18:11:49.495Z,70.66
2022-10-13T18:14:19.150Z,70.32
2022-10-13T18:16:50.037Z,70.79
2022-10-13T18:19:17.809Z,70.94
2022-10-13T18:21:45.492Z,72.92
2022-10-13T18:24:13.224Z,72.00
2022-10-13T18:26:41.068Z,71.28
2022-10-13T18:29:10.493Z,71.10
2022-10-13T18:31:39.143Z,70.95
2022-10-13T18:34:10.298Z,71.23
2022-10-13T18:36:47.463Z,71.47
2022-10-13T18:39:18.597Z,71.32
2022-10-13T18:41:49.162Z,71.85
2022-10-13T18:44:16.449Z,71.65
2022-10-13T18:46:43.860Z,71.96
2022-10-13T18:49:15.333Z,72.66
2022-10-13T18:51:43.802Z,74.21
2022-10-13T18:54:11.762Z,72.97
2022-10-13T18:56:39.040Z,72.52
2022-10-13T18:59:07.445Z,72.74
2022-10-13T19:01:36.986Z,74.05
2022-10-13T19:04:05.176Z,74.28
2022-10-13T19:06:32.957Z,74.79
2022-10-13T19:09:03.934Z,74.71
2022-10-13T19:11:32.163Z,76.65
2022-10-13T19:14:01.152Z,76.15
2022-10-13T19:16:30.426Z,76.24
2022-10-13T19:18:58.161Z,76.44
2022-10-13T19:21:25.448Z,76.74
2022-10-13T19:23:52.783Z,76.79
2022-10-13T19:26:26.821Z,76.74
2022-10-13T19:29:02.355Z,77.28
2022-10-13T19:31:31.541Z,78.01
2022-10-13T19:34:00.143Z,78.10
2022-10-13T19:36:30.342Z,78.02
2022-10-13T19:39:02.765Z,78.10
2022-10-13T19:41:32.311Z,78.53
2022-10-13T19:44:00.461Z,78.43
2022-10-13T19:46:39.517Z,78.48
2022-10-13T19:49:07.064Z,78.81
2022-10-13T19:51:35.866Z,78.72
2022-10-13T19:54:03.692Z,80.04
2022-10-13T19:56:31.758Z,80.31
2022-10-13T19:58:59.638Z,80.25
2022-10-13T20:01:28.962Z,79.62
2022-10-13T20:03:58.350Z,79.26
2022-10-13T20:06:25.564Z,80.64
2022-10-13T20:08:52.976Z,81.47
2022-10-13T20:11:24.036Z,80.62
2022-10-13T20:13:52.151Z,81.50
2022-10-13T20:16:22.515Z,81.75
2022-10-13T20:18:58.437Z,81.52
2022-10-13T20:21:27.630Z,81.68
2022-10-13T20:23:54.862Z,81.36
2022-10-13T20:26:23.381Z,81.55
2022-10-13T20:28:52.058Z,82.36
2022-10-13T20:31:21.716Z,82.34
2022-10-13T20:33:52.871Z,82.91
2022-10-13T20:36:21.302Z,83.57
2022-10-13T20:38:49.380Z,83.29
2022-10-13T20:41:25.984Z,83.50
2022-10-13T20:43:54.803Z,83.89
2022-10-13T20:46:22.169Z,83.77
2022-10-13T20:49:09.992Z,83.56
2022-10-13T20:51:37.960Z,83.62
2022-10-13T20:54:05.132Z,86.21
2022-10-13T20:56:35.000Z,88.31
2022-10-13T20:59:06.384Z,87.61
2022-10-13T21:01:37.831Z,87.01
2022-10-13T21:04:10.264Z,86.92
2022-10-13T21:06:38.229Z,86.68
2022-10-13T21:09:06.129Z,86.74
2022-10-13T21:11:34.234Z,90.21
2022-10-13T21:14:14.046Z,89.15
2022-10-13T21:16:41.149Z,88.63
2022-10-13T21:19:11.601Z,88.20
2022-10-13T21:21:38.907Z,87.86
2022-10-13T21:24:07.746Z,87.41
2022-10-13T21:26:35.924Z,87.48
2022-10-13T21:29:03.614Z,87.28
2022-10-13T21:31:31.545Z,87.90
2022-10-13T21:33:59.021Z,88.80
2022-10-13T21:36:28.659Z,90.08
2022-10-13T21:39:04.495Z,90.17
2022-10-13T21:41:34.278Z,89.82
2022-10-13T21:44:02.764Z,89.96
2022-10-13T21:46:34.142Z,89.57
2022-10-13T21:49:05.192Z,90.35
2022-10-13T21:51:37.346Z,89.86
2022-10-13T21:54:10.476Z,89.87
2022-10-13T21:56:39.219Z,89.69
2022-10-13T21:59:07.164Z,89.53
2022-10-13T22:01:34.717Z,89.24
2022-10-13T22:04:11.782Z,93.17
2022-10-13T22:06:39.070Z,94.32
2022-10-13T22:09:06.564Z,93.29
2022-10-13T22:11:36.679Z,92.64
2022-10-13T22:14:11.822Z,92.32
2022-10-13T22:16:42.261Z,92.32
2022-10-13T22:19:10.700Z,92.27
2022-10-13T22:21:44.841Z,91.95
2022-10-13T22:24:14.976Z,91.42
2022-10-13T22:26:43.521Z,91.49
2022-10-13T22:29:13.354Z,90.68
2022-10-13T22:31:41.344Z,93.53
2022-10-13T22:34:14.565Z,95.18
2022-10-13T22:36:44.703Z,94.49
2022-10-13T22:39:13.146Z,93.11
2022-10-13T22:41:40.587Z,92.71
2022-10-13T22:44:08.063Z,91.84
2022-10-13T22:46:37.455Z,91.56
2022-10-13T22:49:06.309Z,91.48
2022-10-13T22:51:35.203Z,90.84
2022-10-13T22:54:02.888Z,91.39
2022-10-13T22:56:32.574Z,90.95
2022-10-13T22:59:05.260Z,91.31
2022-10-13T23:01:32.732Z,93.28
2022-10-13T23:04:00.629Z,92.59
2022-10-13T23:06:30.711Z,92.37
2022-10-13T23:09:01.274Z,91.73
2022-10-13T23:11:28.532Z,91.23
2022-10-13T23:13:55.807Z,90.82
2022-10-13T23:16:25.147Z,90.75
2022-10-13T23:18:52.747Z,90.47
2022-10-13T23:21:26.185Z,90.14
2022-10-13T23:23:58.704Z,90.45
2022-10-13T23:26:26.597Z,90.17
2022-10-13T23:28:55.938Z,90.68
2022-10-13T23:31:23.533Z,90.13
2022-10-13T23:33:50.914Z,90.06
2022-10-13T23:36:21.687Z,89.84
2022-10-13T23:39:04.512Z,91.19
2022-10-13T23:41:32.540Z,91.00
2022-10-13T23:43:59.608Z,91.72
2022-10-13T23:46:26.921Z,94.25
2022-10-13T23:48:54.499Z,94.52
2022-10-13T23:51:23.739Z,94.31
2022-10-13T23:53:51.486Z,94.46
2022-10-13T23:56:18.932Z,94.23
2022-10-13T23:58:46.647Z,93.37
